Time;durP1;ratioP1;P1;durP2;ratioP2;P2;SDS_P1;SDS_P2;PMS_P1;PMS_P2;Temp;Humidity;BMP_temperature;BMP_pressure;BME280_temperature;BME280_humidity;BME280_pressure;Samples;Min_cycle;Max_cycle;Signal;HPM_P1;HPM_P2
2024/04/09 00:00:55;;;;;;;;;22.50;19.50;;;;;14.51;79.68;100083.23;113445;221;169984;-56
2024/04/09 00:03:58;;;;;;;;;26.67;22.33;;;;;14.45;79.72;100080.65;113739;222;40195;-55
2024/04/09 00:06:32;;;;;;;;;26.00;22.00;;;;;14.39;79.83;100078.73;113395;222;170068;-54
2024/04/09 00:09:11;;;;;;;;;32.00;25.00;;;;;14.34;80.02;100079.62;113425;223;41691;-58
2024/04/09 00:11:47;;;;;;;;;26.00;21.00;;;;;14.29;80.01;100081.75;113243;222;170423;-56
2024/04/09 00:14:21;;;;;;;;;26.00;22.00;;;;;14.28;80.29;100083.64;113622;225;40737;-57
2024/04/09 00:17:05;;;;;;;;;27.00;24.00;;;;;14.24;80.44;100077.65;113517;222;170164;-56
2024/04/09 00:19:43;;;;;;;;;25.00;23.00;;;;;14.23;80.56;100076.15;113628;221;41002;-54
2024/04/09 00:22:23;;;;;;;;;26.50;21.50;;;;;14.17;80.94;100073.31;113680;222;40254;-55
2024/04/09 00:24:57;;;;;;;;;27.50;24.00;;;;;14.17;81.01;100073.14;113389;225;40449;-58
2024/04/09 00:27:36;;;;;;;;;28.00;23.00;;;;;14.19;81.04;100072.00;113706;222;40274;-58
2024/04/09 00:30:11;;;;;;;;;30.00;25.00;;;;;14.20;80.97;100074.02;113422;221;169948;-54
2024/04/09 00:32:55;;;;;;;;;26.00;22.00;;;;;14.20;81.18;100071.33;113591;225;40662;-54
2024/04/09 00:35:32;;;;;;;;;25.50;22.50;;;;;14.19;81.33;100069.08;113624;221;169926;-59
2024/04/09 00:38:14;;;;;;;;;30.00;25.00;;;;;14.14;81.42;100070.16;113757;224;41117;-57
2024/04/09 00:40:54;;;;;;;;;28.00;23.00;;;;;14.12;81.65;100074.14;113494;223;170320;-55
2024/04/09 00:43:30;;;;;;;;;27.00;23.00;;;;;14.12;81.65;100070.55;113654;220;42985;-54
2024/04/09 00:46:11;;;;;;;;;26.00;23.00;;;;;14.09;81.79;100073.41;113652;220;40586;-55
2024/04/09 00:48:48;;;;;;;;;27.00;22.00;;;;;14.01;82.06;100072.39;113473;220;170629;-56
2024/04/09 00:51:32;;;;;;;;;26.00;23.00;;;;;13.96;82.02;100073.30;113600;219;40645;-56
2024/04/09 00:54:10;;;;;;;;;30.00;24.50;;;;;13.97;82.01;100067.77;113448;224;170199;-55
2024/04/09 00:56:49;;;;;;;;;28.00;23.00;;;;;13.95;82.12;100066.73;113593;219;42122;-55
2024/04/09 00:59:24;;;;;;;;;29.00;24.00;;;;;13.94;82.41;100062.03;113420;224;170564;-57
2024/04/09 01:02:05;;;;;;;;;29.00;24.00;;;;;13.91;82.62;100060.80;113578;220;41664;-57
2024/04/09 01:04:49;;;;;;;;;29.00;24.00;;;;;13.85;82.68;100064.81;113412;224;171018;-55
2024/04/09 01:07:28;;;;;;;;;28.00;24.00;;;;;13.84;82.71;100067.48;113578;220;40664;-55
2024/04/09 01:10:05;;;;;;;;;25.33;22.00;;;;;13.81;82.88;100066.08;113643;219;40209;-54
2024/04/09 01:12:40;;;;;;;;;24.50;21.50;;;;;13.80;82.93;100062.63;113359;220;169921;-54
2024/04/09 01:15:24;;;;;;;;;29.00;24.00;;;;;13.80;82.98;100061.42;113586;220;40225;-55
2024/04/09 01:18:06;;;;;;;;;30.00;25.00;;;;;13.72;83.24;100057.57;113391;224;170278;-55
2024/04/09 01:20:42;;;;;;;;;25.50;21.50;;;;;13.68;83.27;100057.47;113709;220;40113;-58
2024/04/09 01:23:26;;;;;;;;;27.00;23.00;;;;;13.61;83.59;100053.55;113566;220;170642;-58
2024/04/09 01:26:10;;;;;;;;;27.25;23.75;;;;;13.61;83.46;100057.19;113742;220;41518;-59
2024/04/09 01:28:46;;;;;;;;;27.33;23.67;;;;;13.57;83.64;100060.13;113583;224;170535;-58
2024/04/09 01:31:24;;;;;;;;;31.00;26.00;;;;;13.52;83.87;100062.58;113675;220;40266;-58
2024/04/09 01:34:09;;;;;;;;;28.33;23.67;;;;;13.54;83.92;100064.90;113689;220;41120;-58
2024/04/09 01:36:51;;;;;;;;;26.50;23.00;;;;;13.51;84.21;100063.61;113559;222;170382;-57
2024/04/09 01:39:28;;;;;;;;;28.00;24.00;;;;;13.54;84.10;100065.77;113694;224;40385;-56
2024/04/09 01:42:04;;;;;;;;;33.00;26.00;;;;;13.48;84.08;100064.59;113308;225;170093;-57
2024/04/09 01:44:45;;;;;;;;;26.50;22.00;;;;;13.48;84.27;100064.26;113583;220;40250;-57
2024/04/09 01:47:33;;;;;;;;;25.00;22.50;;;;;13.46;84.54;100068.03;113350;220;170090;-57
2024/04/09 01:50:10;;;;;;;;;28.00;24.00;;;;;13.40;84.47;100070.27;113619;220;40646;-55
2024/04/09 01:52:48;;;;;;;;;27.00;23.00;;;;;13.37;84.51;100065.11;113425;220;170405;-55
2024/04/09 01:55:27;;;;;;;;;28.00;23.00;;;;;13.32;84.59;100062.54;113573;220;41206;-55
2024/04/09 01:58:04;;;;;;;;;29.00;24.00;;;;;13.31;84.79;100060.58;113589;220;40806;-55
2024/04/09 02:00:45;;;;;;;;;29.00;24.33;;;;;13.29;84.93;100062.64;113399;220;170261;-57
2024/04/09 02:03:23;;;;;;;;;27.67;23.67;;;;;13.24;85.11;100065.66;113610;220;39966;-57
2024/04/09 02:06:06;;;;;;;;;29.00;24.00;;;;;13.22;85.40;100067.41;113356;224;170745;-54
2024/04/09 02:08:50;;;;;;;;;28.00;24.00;;;;;13.19;85.33;100065.39;113605;224;41379;-56
2024/04/09 02:11:31;;;;;;;;;26.33;23.33;;;;;13.18;85.35;100066.68;113468;220;170175;-55
2024/04/09 02:14:06;;;;;;;;;25.00;23.00;;;;;13.17;85.51;100066.48;113688;223;40497;-54
2024/04/09 02:16:46;;;;;;;;;28.00;24.00;;;;;13.16;85.64;100065.90;113480;220;170390;-54
2024/04/09 02:19:28;;;;;;;;;29.00;23.00;;;;;13.20;85.65;100065.41;113641;220;40582;-55
2024/04/09 02:22:03;;;;;;;;;26.00;22.00;;;;;13.16;85.71;100064.98;113623;223;39924;-54
2024/04/09 02:24:39;;;;;;;;;25.00;21.50;;;;;13.21;85.97;100068.96;113424;220;169953;-57
2024/04/09 02:27:14;;;;;;;;;32.00;26.00;;;;;13.27;85.74;100064.77;113646;223;42528;-57
2024/04/09 02:29:54;;;;;;;;;31.50;24.00;;;;;13.32;85.79;100065.34;113441;220;170320;-57
2024/04/09 02:32:41;;;;;;;;;26.00;22.00;;;;;13.34;85.89;100066.46;113564;220;39962;-58
2024/04/09 02:35:20;;;;;;;;;29.00;25.00;;;;;13.43;85.96;100064.74;113380;220;169888;-58
2024/04/09 02:37:59;;;;;;;;;31.50;25.50;;;;;13.48;85.98;100063.92;113592;224;40323;-57
2024/04/09 02:40:40;;;;;;;;;29.00;25.00;;;;;13.52;85.82;100070.05;113484;224;170314;-54
2024/04/09 02:43:20;;;;;;;;;31.00;26.00;;;;;13.53;85.82;100075.13;113553;224;41124;-54
2024/04/09 02:45:56;;;;;;;;;29.00;24.00;;;;;13.48;85.84;100075.66;113710;223;40610;-58
2024/04/09 02:48:37;;;;;;;;;29.50;24.00;;;;;13.47;85.75;100080.54;113457;221;170117;-55
2024/04/09 02:51:21;;;;;;;;;28.00;23.00;;;;;13.43;85.79;100079.64;113666;220;40244;-58
2024/04/09 02:54:03;;;;;;;;;27.67;23.33;;;;;13.38;86.02;100083.55;113496;220;170140;-57
2024/04/09 02:56:46;;;;;;;;;30.00;24.00;;;;;13.38;85.87;100083.97;113577;224;40964;-57
2024/04/09 02:59:24;;;;;;;;;30.00;24.00;;;;;13.32;86.16;100085.37;113416;223;170156;-57
2024/04/09 03:02:07;;;;;;;;;30.00;25.00;;;;;13.30;86.08;100084.73;113646;221;40766;-57
2024/04/09 03:04:46;;;;;;;;;28.00;24.00;;;;;13.29;86.14;100084.34;113616;223;170093;-58
2024/04/09 03:07:30;;;;;;;;;28.00;23.00;;;;;13.28;86.12;100090.15;113767;220;39634;-58
2024/04/09 03:10:07;;;;;;;;;30.00;25.00;;;;;13.29;86.17;100088.05;113684;220;41529;-55
2024/04/09 03:12:46;;;;;;;;;28.00;24.00;;;;;13.25;86.17;100088.10;113384;223;170752;-54
2024/04/09 03:15:23;;;;;;;;;30.00;26.00;;;;;13.24;86.15;100085.56;113687;220;42059;-58
2024/04/09 03:18:06;;;;;;;;;28.00;23.00;;;;;13.22;86.13;100091.83;113479;220;170600;-58
2024/04/09 03:20:47;;;;;;;;;31.00;25.00;;;;;13.21;86.31;100088.40;113578;220;41015;-58
2024/04/09 03:23:28;;;;;;;;;32.00;25.00;;;;;13.21;86.50;100088.58;113370;221;170156;-58
2024/04/09 03:26:06;;;;;;;;;33.00;26.00;;;;;13.30;86.43;100097.06;113572;219;40518;-55
2024/04/09 03:28:47;;;;;;;;;29.00;24.50;;;;;13.43;86.71;100093.48;113443;219;170066;-58
2024/04/09 03:31:37;;;;;;;;;34.00;27.00;;;;;13.59;86.72;100096.02;113618;219;40302;-58
2024/04/09 03:34:11;;;;;;;;;34.00;28.00;;;;;13.70;86.81;100095.67;113685;223;40546;-58
2024/04/09 03:36:53;;;;;;;;;33.00;27.00;;;;;13.80;86.56;100091.77;113344;220;170020;-58
2024/04/09 03:39:28;;;;;;;;;33.00;27.00;;;;;13.83;86.50;100089.95;113651;224;40649;-59
2024/04/09 03:42:03;;;;;;;;;33.00;27.00;;;;;13.90;86.28;100089.75;113434;224;170331;-55
2024/04/09 03:44:47;;;;;;;;;30.50;25.50;;;;;13.93;86.44;100086.83;113640;221;39894;-59
2024/04/09 03:47:30;;;;;;;;;34.00;27.00;;;;;13.93;86.13;100085.30;113514;224;169891;-58
2024/04/09 03:50:05;;;;;;;;;35.00;27.00;;;;;13.94;86.12;100089.14;113661;221;40868;-55
2024/04/09 03:52:43;;;;;;;;;33.00;27.50;;;;;13.94;86.01;100085.05;113450;225;170683;-57
2024/04/09 03:55:19;;;;;;;;;34.00;28.00;;;;;13.95;85.74;100081.74;113681;221;40269;-58
2024/04/09 03:58:01;;;;;;;;;34.00;27.00;;;;;13.95;85.51;100078.57;113733;224;41390;-59
2024/04/09 04:00:39;;;;;;;;;31.50;26.50;;;;;13.97;85.62;100082.35;113452;224;171232;-59
2024/04/09 04:03:19;;;;;;;;;33.00;26.00;;;;;14.02;85.50;100083.36;113586;221;39904;-56
2024/04/09 04:06:05;;;;;;;;;31.00;26.00;;;;;14.02;85.47;100083.54;113472;224;170123;-58
2024/04/09 04:08:44;;;;;;;;;31.50;25.50;;;;;13.99;85.39;100080.08;113592;224;40278;-55
2024/04/09 04:11:20;;;;;;;;;34.00;26.00;;;;;14.06;85.38;100085.92;113369;224;170483;-56
2024/04/09 04:13:55;;;;;;;;;32.00;26.00;;;;;14.11;85.32;100086.98;113622;224;40060;-58
2024/04/09 04:16:36;;;;;;;;;32.33;24.67;;;;;14.15;85.18;100086.08;113652;221;41345;-59
2024/04/09 04:19:16;;;;;;;;;31.00;25.00;;;;;14.20;85.09;100091.13;113650;222;40739;-57
2024/04/09 04:21:56;;;;;;;;;34.00;28.00;;;;;14.27;85.03;100091.51;113585;221;41001;-57
2024/04/09 04:24:35;;;;;;;;;31.00;25.00;;;;;14.32;84.87;100091.44;113404;221;169436;-58
2024/04/09 04:27:12;;;;;;;;;36.00;28.00;;;;;14.40;84.80;100089.17;113724;221;39918;-58
2024/04/09 04:29:46;;;;;;;;;31.50;25.00;;;;;14.47;84.51;100088.41;113488;224;169645;-58
2024/04/09 04:32:25;;;;;;;;;30.00;26.00;;;;;14.50;84.40;100087.33;113609;221;41563;-57
2024/04/09 04:35:02;;;;;;;;;32.00;26.00;;;;;14.57;84.27;100087.61;113461;221;169913;-58
2024/04/09 04:37:40;;;;;;;;;30.00;25.00;;;;;14.64;84.19;100086.37;113387;223;42847;-58
2024/04/09 04:40:20;;;;;;;;;32.50;25.50;;;;;14.74;84.00;100086.61;113611;223;40535;-57
2024/04/09 04:43:02;;;;;;;;;30.50;25.00;;;;;14.90;83.87;100089.17;113389;221;170915;-58
2024/04/09 04:45:41;;;;;;;;;28.50;24.00;;;;;15.03;83.56;100088.95;113628;220;40965;-56
2024/04/09 04:48:18;;;;;;;;;30.50;24.00;;;;;15.15;83.36;100091.21;113450;223;170675;-59
2024/04/09 04:50:53;;;;;;;;;33.00;26.00;;;;;15.28;83.19;100094.24;113705;223;39876;-59
2024/04/09 04:53:33;;;;;;;;;31.00;26.00;;;;;15.58;82.62;100096.16;113511;220;169752;-59
2024/04/09 04:56:09;;;;;;;;;29.00;25.00;;;;;15.78;82.39;100101.20;113588;220;40532;-57
2024/04/09 04:58:47;;;;;;;;;28.00;24.00;;;;;15.93;81.86;100094.85;113457;223;170145;-58
2024/04/09 05:01:28;;;;;;;;;30.50;25.00;;;;;16.05;81.47;100096.48;113570;223;40026;-58
2024/04/09 05:04:06;;;;;;;;;29.00;24.00;;;;;16.18;80.85;100097.86;113643;223;40500;-55
2024/04/09 05:06:44;;;;;;;;;30.00;25.00;;;;;16.26;80.77;100095.94;113393;223;169736;-55
2024/04/09 05:09:29;;;;;;;;;27.00;23.00;;;;;16.30;80.03;100098.56;113620;220;40298;-59
2024/04/09 05:12:11;;;;;;;;;29.00;25.00;;;;;16.36;80.01;100094.27;113459;220;169890;-58
2024/04/09 05:14:53;;;;;;;;;29.00;24.00;;;;;16.45;80.25;100097.09;113693;220;41781;-54
2024/04/09 05:17:35;;;;;;;;;35.00;28.00;;;;;16.69;79.79;100094.71;113468;221;171052;-54
2024/04/09 05:20:11;;;;;;;;;31.00;25.00;;;;;16.94;79.42;100091.80;113586;223;40893;-58
2024/04/09 05:22:46;;;;;;;;;29.00;26.00;;;;;17.14;79.01;100093.13;113537;223;172472;-59
2024/04/09 05:25:20;;;;;;;;;30.00;24.00;;;;;17.46;78.65;100092.77;113633;220;40170;-55
2024/04/09 05:28:02;;;;;;;;;29.00;25.00;;;;;17.83;77.79;100088.19;113637;223;42196;-55
2024/04/09 05:30:37;;;;;;;;;27.75;23.75;;;;;18.26;77.01;100085.67;113410;221;170098;-54
2024/04/09 05:33:16;;;;;;;;;26.50;22.50;;;;;18.73;76.78;100083.42;113598;223;40570;-55
2024/04/09 05:35:55;;;;;;;;;24.50;22.00;;;;;19.41;75.41;100087.80;113408;220;170143;-59
2024/04/09 05:38:31;;;;;;;;;26.00;23.00;;;;;20.05;74.28;100086.36;113616;223;40321;-55
2024/04/09 05:41:12;;;;;;;;;28.00;24.00;;;;;20.47;72.51;100092.29;113423;223;170152;-55
2024/04/09 05:43:53;;;;;;;;;26.00;24.00;;;;;21.00;71.22;100090.81;113576;220;40337;-58
2024/04/09 05:46:28;;;;;;;;;23.50;21.50;;;;;21.70;69.97;100089.72;113636;223;40248;-55
2024/04/09 05:49:04;;;;;;;;;26.00;22.00;;;;;22.29;68.79;100089.77;113398;223;169864;-59
2024/04/09 05:51:48;;;;;;;;;27.00;24.00;;;;;22.82;67.05;100086.11;113647;220;40207;-59
2024/04/09 05:54:25;;;;;;;;;26.00;23.00;;;;;23.30;65.63;100089.39;113447;224;170329;-55
2024/04/09 05:57:01;;;;;;;;;24.00;21.00;;;;;23.71;64.20;100092.34;113622;219;40337;-56
2024/04/09 05:59:39;;;;;;;;;24.67;22.00;;;;;24.09;62.70;100095.48;113431;219;169876;-56
2024/04/09 06:02:16;;;;;;;;;22.50;20.50;;;;;24.47;61.36;100093.56;113640;219;42248;-56
2024/04/09 06:04:54;;;;;;;;;23.00;22.00;;;;;24.90;60.26;100091.00;113495;219;170697;-58
2024/04/09 06:07:30;;;;;;;;;23.00;21.00;;;;;25.29;59.22;100083.52;113720;220;40446;-59
2024/04/09 06:10:04;;;;;;;;;23.00;21.00;;;;;25.77;57.85;100084.06;113725;220;40530;-59
2024/04/09 06:12:46;;;;;;;;;22.00;20.00;;;;;26.09;57.16;100085.64;113434;223;170142;-59
2024/04/09 06:15:25;;;;;;;;;23.00;21.00;;;;;26.18;55.51;100087.04;113670;220;40325;-66
2024/04/09 06:18:06;;;;;;;;;22.00;20.00;;;;;25.81;54.99;100085.13;113434;220;170633;-66
2024/04/09 06:20:51;;;;;;;;;23.00;21.00;;;;;25.59;54.06;100084.73;113603;220;40465;-58
2024/04/09 06:23:28;;;;;;;;;19.00;18.00;;;;;25.16;53.92;100085.15;113422;220;170487;-58
2024/04/09 06:26:14;;;;;;;;;19.00;18.00;;;;;25.05;53.68;100089.19;113625;220;40516;-58
2024/04/09 06:28:52;;;;;;;;;23.00;20.00;;;;;24.62;53.93;100091.17;113535;223;170143;-56
2024/04/09 06:31:33;;;;;;;;;24.00;22.00;;;;;24.34;53.07;100099.90;113593;223;41379;-56
2024/04/09 06:34:08;;;;;;;;;19.00;18.00;;;;;24.11;52.91;100098.60;113610;220;41495;-59
2024/04/09 06:36:44;;;;;;;;;19.25;18.00;;;;;24.05;53.11;100092.16;113391;220;169963;-58
2024/04/09 06:39:23;;;;;;;;;19.00;18.00;;;;;24.24;53.26;100090.38;113592;223;41669;-56
2024/04/09 06:42:03;;;;;;;;;19.00;17.00;;;;;24.30;52.75;100087.79;113393;223;169842;-56
2024/04/09 06:44:46;;;;;;;;;18.00;17.00;;;;;24.30;52.12;100087.89;113654;223;39856;-58
2024/04/09 06:47:28;;;;;;;;;17.00;16.00;;;;;24.30;51.88;100093.95;112967;220;547043;-58
2024/04/09 06:50:06;;;;;;;;;18.00;17.00;;;;;24.13;51.51;100095.13;113705;220;41447;-59
2024/04/09 06:52:41;;;;;;;;;19.00;17.00;;;;;23.97;51.34;100099.99;113697;223;40260;-59
2024/04/09 06:55:22;;;;;;;;;19.00;17.00;;;;;23.96;51.24;100101.65;113597;221;41225;-55
2024/04/09 06:57:59;;;;;;;;;17.00;16.00;;;;;23.98;51.74;100096.57;113621;219;41474;-55
2024/04/09 07:00:34;;;;;;;;;19.00;16.00;;;;;24.03;51.79;100099.02;113440;223;169723;-60
2024/04/09 07:03:10;;;;;;;;;17.00;16.00;;;;;24.20;51.49;100095.98;113667;220;41567;-59
2024/04/09 07:05:48;;;;;;;;;18.00;16.00;;;;;24.36;51.09;100095.73;113477;221;170008;-59
2024/04/09 07:08:24;;;;;;;;;16.00;15.00;;;;;24.81;51.13;100091.46;113657;221;41183;-60
2024/04/09 07:11:02;;;;;;;;;18.00;16.00;;;;;25.53;50.19;100089.51;113422;223;170201;-57
2024/04/09 07:13:40;;;;;;;;;14.00;14.00;;;;;25.62;48.51;100083.93;113631;223;40710;-56
2024/04/09 07:16:22;;;;;;;;;15.00;14.00;;;;;25.46;48.44;100085.27;113630;220;41268;-57
2024/04/09 07:19:03;;;;;;;;;15.00;15.00;;;;;25.52;48.49;100084.39;113400;223;170023;-57
2024/04/09 07:21:40;;;;;;;;;15.00;14.00;;;;;25.85;49.12;100081.53;113601;220;41481;-57
2024/04/09 07:24:20;;;;;;;;;15.00;14.00;;;;;26.63;48.41;100078.54;113414;220;170114;-56
2024/04/09 07:26:56;;;;;;;;;17.00;16.00;;;;;26.70;46.81;100076.09;113568;220;39878;-58
2024/04/09 07:29:35;;;;;;;;;15.00;14.00;;;;;26.55;46.33;100077.52;113415;220;171380;-55
2024/04/09 07:32:12;;;;;;;;;11.00;9.50;;;;;26.32;45.65;100080.04;113580;224;40278;-56
2024/04/09 07:34:52;;;;;;;;;14.00;13.00;;;;;26.13;45.51;100077.61;113661;223;40467;-58
2024/04/09 07:37:34;;;;;;;;;14.00;12.00;;;;;26.08;45.55;100078.09;113591;221;40542;-58
2024/04/09 07:40:11;;;;;;;;;13.00;12.00;;;;;25.97;45.21;100078.93;113642;220;42078;-56
2024/04/09 07:42:46;;;;;;;;;12.00;11.00;;;;;25.94;45.79;100077.14;113429;223;169731;-56
2024/04/09 07:45:22;;;;;;;;;12.00;11.33;;;;;26.17;45.58;100080.81;113626;219;40027;-56
2024/04/09 07:48:04;;;;;;;;;14.00;13.00;;;;;26.48;45.29;100076.79;113435;220;169831;-55
2024/04/09 07:50:45;;;;;;;;;14.00;13.00;;;;;26.60;45.16;100072.26;113605;220;40255;-56
2024/04/09 07:53:23;;;;;;;;;12.00;11.00;;;;;26.61;44.35;100075.40;113401;223;170309;-55
2024/04/09 07:56:04;;;;;;;;;11.50;11.00;;;;;26.86;43.33;100074.23;113570;223;40077;-54
2024/04/09 07:58:44;;;;;;;;;12.00;12.00;;;;;27.12;42.92;100072.80;113633;223;41028;-56
2024/04/09 08:01:21;;;;;;;;;13.00;12.00;;;;;27.46;42.24;100073.70;113566;221;41937;-55
2024/04/09 08:03:59;;;;;;;;;13.00;12.00;;;;;28.05;42.74;100073.66;113634;219;40134;-54
2024/04/09 08:06:41;;;;;;;;;12.00;11.00;;;;;28.77;41.75;100075.38;113379;225;169648;-55
2024/04/09 08:09:23;;;;;;;;;11.00;11.00;;;;;29.43;40.92;100070.20;113637;220;39680;-55
2024/04/09 08:12:04;;;;;;;;;11.00;9.00;;;;;30.31;40.25;100067.93;113410;223;170593;-55
2024/04/09 08:14:44;;;;;;;;;12.00;11.00;;;;;30.89;39.55;100067.98;113629;220;41052;-57
2024/04/09 08:17:25;;;;;;;;;12.00;11.00;;;;;31.51;38.77;100067.67;113459;219;170646;-57
2024/04/09 08:20:04;;;;;;;;;10.50;10.00;;;;;32.08;38.71;100069.84;113661;220;40489;-59
2024/04/09 08:22:38;;;;;;;;;13.00;12.00;;;;;32.65;38.01;100066.44;113608;223;41782;-58
2024/04/09 08:25:24;;;;;;;;;10.00;9.00;;;;;33.14;37.07;100063.52;113449;221;169741;-57
2024/04/09 08:28:04;;;;;;;;;11.00;11.00;;;;;33.54;35.42;100062.21;113607;220;42142;-55
2024/04/09 08:30:47;;;;;;;;;11.00;11.00;;;;;33.95;34.65;100057.77;113470;220;170077;-61
2024/04/09 08:33:22;;;;;;;;;12.00;11.00;;;;;34.03;34.53;100056.11;113620;223;41159;-60
2024/04/09 08:36:01;;;;;;;;;12.00;10.00;;;;;34.42;33.94;100053.89;113451;223;170059;-58
2024/04/09 08:38:45;;;;;;;;;12.00;12.00;;;;;34.63;32.39;100056.66;113561;220;40396;-56
2024/04/09 08:41:21;;;;;;;;;11.00;11.00;;;;;34.37;32.84;100054.94;113371;223;170077;-56
2024/04/09 08:44:00;;;;;;;;;13.00;12.00;;;;;34.48;32.69;100053.65;113625;223;40294;-59
2024/04/09 08:46:41;;;;;;;;;10.00;9.00;;;;;34.85;32.38;100049.49;113653;223;40324;-60
2024/04/09 08:49:21;;;;;;;;;11.00;11.00;;;;;34.92;32.05;100047.63;113484;224;169689;-61
2024/04/09 08:52:00;;;;;;;;;10.00;9.00;;;;;35.15;31.75;100048.50;113636;220;40301;-60
2024/04/09 08:54:40;;;;;;;;;12.00;11.00;;;;;35.08;31.17;100048.60;113465;221;169935;-61
2024/04/09 08:57:23;;;;;;;;;11.00;11.00;;;;;34.85;31.23;100048.96;113649;223;41124;-61
2024/04/09 09:00:00;;;;;;;;;9.00;9.00;;;;;34.96;30.88;100051.00;113238;224;170985;-59
2024/04/09 09:02:40;;;;;;;;;8.75;8.00;;;;;34.90;30.51;100047.55;113626;219;41799;-57
2024/04/09 09:05:24;;;;;;;;;11.00;10.00;;;;;35.08;30.72;100054.63;113457;219;169735;-60
2024/04/09 09:08:07;;;;;;;;;9.00;9.00;;;;;35.31;28.92;100049.65;113483;223;40113;-60
2024/04/09 09:10:43;;;;;;;;;;;;;;;35.29;28.47;100051.20;113667;220;40908;-61
2024/04/09 09:13:23;;;;;;;;;8.00;8.00;;;;;35.00;28.64;100050.40;113408;221;149197;-60
2024/04/09 09:16:00;;;;;;;;;8.00;8.00;;;;;35.14;28.65;100048.31;113615;223;41053;-59
2024/04/09 09:18:37;;;;;;;;;9.00;9.00;;;;;35.15;28.83;100047.27;113402;223;169412;-59
2024/04/09 09:21:16;;;;;;;;;8.00;8.00;;;;;34.63;28.85;100047.92;113652;223;40108;-59
2024/04/09 09:24:06;;;;;;;;;10.00;9.00;;;;;34.72;28.73;100041.76;113477;223;169380;-57
2024/04/09 09:26:58;;;;;;;;;10.00;9.00;;;;;34.59;27.89;100048.55;113591;221;40653;-59
2024/04/09 09:29:37;;;;;;;;;9.00;8.00;;;;;34.27;28.78;100044.30;113445;219;170903;-55
2024/04/09 09:32:23;;;;;;;;;7.00;7.00;;;;;34.02;28.72;100044.15;113575;219;40520;-57
2024/04/09 09:35:01;;;;;;;;;9.00;8.00;;;;;33.35;28.92;100041.97;113493;219;170851;-59
2024/04/09 09:37:44;;;;;;;;;8.00;8.00;;;;;33.01;29.10;100042.63;113650;220;40589;-59
2024/04/09 09:40:28;;;;;;;;;9.00;8.00;;;;;32.50;28.71;100040.67;113633;223;39936;-60
2024/04/09 09:43:10;;;;;;;;;8.00;8.00;;;;;31.96;29.32;100033.27;113423;223;169504;-59
2024/04/09 09:45:47;;;;;;;;;9.00;8.00;;;;;31.59;29.56;100034.07;113668;223;41927;-55
2024/04/09 09:48:27;;;;;;;;;7.00;7.00;;;;;31.34;30.22;100032.25;113424;219;169433;-56
2024/04/09 09:51:05;;;;;;;;;8.00;7.00;;;;;31.16;30.35;100031.96;113633;219;41301;-56
2024/04/09 09:53:41;;;;;;;;;6.00;6.00;;;;;30.90;30.22;100032.02;113493;223;169891;-56
2024/04/09 09:56:23;;;;;;;;;9.00;9.00;;;;;30.62;30.62;100027.52;113637;219;41206;-56
2024/04/09 09:58:58;;;;;;;;;7.50;6.50;;;;;30.58;30.87;100026.63;113465;223;169671;-58
2024/04/09 10:01:35;;;;;;;;;8.00;7.00;;;;;30.50;30.95;100021.56;113577;220;40450;-58
2024/04/09 10:04:11;;;;;;;;;8.00;7.00;;;;;30.41;30.65;100022.36;113616;219;42922;-59
2024/04/09 10:06:53;;;;;;;;;8.00;7.00;;;;;30.27;30.65;100020.17;113458;223;169462;-59
2024/04/09 10:09:46;;;;;;;;;7.67;6.00;;;;;30.08;31.03;100018.02;113613;220;40601;-56
2024/04/09 10:12:31;;;;;;;;;9.00;8.00;;;;;30.00;31.34;100012.06;113418;219;169289;-56
2024/04/09 10:15:11;;;;;;;;;8.00;8.00;;;;;30.01;31.55;100011.07;113616;219;41054;-58
2024/04/09 10:17:53;;;;;;;;;10.00;9.00;;;;;30.03;31.86;100008.58;113443;219;169718;-58
2024/04/09 10:20:30;;;;;;;;;7.00;7.00;;;;;30.05;31.16;100003.40;113602;219;40977;-57
2024/04/09 10:23:08;;;;;;;;;8.00;8.00;;;;;29.89;31.17;100002.09;113454;219;169643;-58
2024/04/09 10:25:50;;;;;;;;;9.00;8.00;;;;;29.91;31.64;100005.20;113659;223;39900;-56
2024/04/09 10:28:42;;;;;;;;;7.50;7.50;;;;;29.88;31.39;99999.17;113636;223;40005;-55
2024/04/09 10:31:21;;;;;;;;;9.00;9.00;;;;;29.85;31.00;99998.48;113370;221;169517;-59
2024/04/09 10:34:05;;;;;;;;;8.50;8.00;;;;;29.72;30.98;99995.45;113619;219;41333;-55
2024/04/09 10:36:45;;;;;;;;;8.00;7.00;;;;;29.57;31.74;99988.77;113361;221;169298;-55
2024/04/09 10:39:21;;;;;;;;;9.00;9.00;;;;;29.67;31.59;99988.77;113601;223;40457;-55
2024/04/09 10:42:00;;;;;;;;;8.00;8.00;;;;;29.61;31.55;99988.16;113399;220;172544;-54
2024/04/09 10:44:45;;;;;;;;;9.00;8.00;;;;;29.58;31.93;99985.02;113500;222;41476;-55
2024/04/09 10:47:26;;;;;;;;;6.50;6.00;;;;;29.53;32.01;99984.27;113418;220;169473;-54
2024/04/09 10:50:00;;;;;;;;;8.00;7.67;;;;;29.58;32.03;99977.45;113605;221;40091;-54
2024/04/09 10:52:34;;;;;;;;;7.00;6.00;;;;;29.51;31.80;99980.58;113631;220;40125;-55
2024/04/09 10:55:15;;;;;;;;;9.00;8.50;;;;;29.56;31.90;99975.35;113414;223;169231;-56
2024/04/09 10:57:54;;;;;;;;;9.00;9.00;;;;;29.55;31.17;99975.48;113597;223;40103;-55
2024/04/09 11:00:31;;;;;;;;;8.00;7.00;;;;;29.51;31.49;99969.05;113416;220;169302;-56
2024/04/09 11:03:09;;;;;;;;;8.00;8.00;;;;;29.50;32.13;99964.89;113629;220;40836;-55
2024/04/09 11:05:47;;;;;;;;;7.00;6.75;;;;;29.59;32.30;99967.73;113438;223;169485;-55
2024/04/09 11:08:32;;;;;;;;;8.67;7.00;;;;;29.68;32.59;99966.95;113577;221;39922;-55
2024/04/09 11:11:06;;;;;;;;;7.00;7.00;;;;;29.69;32.04;99957.13;113530;220;169436;-59
2024/04/09 11:13:47;;;;;;;;;9.00;8.00;;;;;29.55;31.68;99955.34;113659;221;40676;-55
2024/04/09 11:16:27;;;;;;;;;7.00;7.00;;;;;29.45;31.74;99956.14;113632;223;40536;-55
2024/04/09 11:19:16;;;;;;;;;9.00;8.00;;;;;29.42;32.06;99955.73;113400;223;169510;-66
2024/04/09 11:21:56;;;;;;;;;9.00;8.00;;;;;29.33;31.86;99952.06;113544;223;39917;-65
2024/04/09 11:24:38;;;;;;;;;9.00;8.00;;;;;29.12;31.87;99949.70;113351;221;170363;-64
2024/04/09 11:27:21;;;;;;;;;10.50;9.50;;;;;29.05;32.01;99949.40;113611;223;41720;-64
2024/04/09 11:29:58;;;;;;;;;8.00;8.00;;;;;28.95;31.75;99942.20;113488;220;169416;-63
2024/04/09 11:32:34;;;;;;;;;8.00;8.00;;;;;28.91;32.29;99935.24;113489;222;41325;-64
2024/04/09 11:35:30;;;;;;;;;7.00;7.00;;;;;28.93;32.65;99934.40;113462;223;169517;-63
2024/04/09 11:38:05;;;;;;;;;10.00;9.00;;;;;28.89;32.33;99936.15;113599;221;40335;-63
2024/04/09 11:40:46;;;;;;;;;9.00;8.00;;;;;28.71;32.34;99935.81;113607;221;40616;-66
2024/04/09 11:43:25;;;;;;;;;8.00;8.00;;;;;28.61;32.12;99931.63;113403;221;170006;-67
2024/04/09 11:46:05;;;;;;;;;8.00;7.00;;;;;28.51;32.45;99927.42;113582;221;40313;-63
2024/04/09 11:48:44;;;;;;;;;9.00;8.00;;;;;28.44;32.65;99932.57;113434;224;169374;-64
2024/04/09 11:51:27;;;;;;;;;9.00;8.00;;;;;28.42;32.70;99919.85;113562;221;40344;-64
2024/04/09 11:54:12;;;;;;;;;9.00;8.00;;;;;28.43;32.47;99924.54;113365;221;169290;-64
2024/04/09 11:56:51;;;;;;;;;10.00;9.00;;;;;28.34;32.92;99922.32;113590;221;41714;-65
2024/04/09 11:59:26;;;;;;;;;8.00;7.00;;;;;28.31;32.79;99917.14;113417;224;170316;-63
2024/04/09 12:02:02;;;;;;;;;11.00;8.00;;;;;28.27;33.29;99914.08;113563;224;40317;-63
2024/04/09 12:04:39;;;;;;;;;9.00;8.00;;;;;28.20;33.67;99912.82;113612;221;40481;-66
2024/04/09 12:07:19;;;;;;;;;10.00;9.00;;;;;28.23;33.88;99916.06;113405;221;169220;-66